Terminal Aerodrome Forecast
Issued by NWS

Home | Current Version | Previous Version | Graphics & Text | Print | Product List | Glossary On
Versions: 1 2 3 4 5 6 7 8 9 10 11 12 13 14 15 16
000
FTUS43 KBIS 270530
TAFJMS
TAF
KJMS 270530Z 2706/2806 15004KT P6SM BKN250
     FM271800 13006KT P6SM SCT035 BKN250
     FM280300 15004KT P6SM SCT080 BKN250=

USA.gov is the U.S. government's official web portal to all federal, state and local government web resources and services.